Time;durP1;ratioP1;P1;durP2;ratioP2;P2;SDS_P1;SDS_P2;PMS_P1;PMS_P2;Temp;Humidity;BMP_temperature;BMP_pressure;BME280_temperature;BME280_humidity;BME280_pressure;Samples;Min_cycle;Max_cycle;Signal;HPM_P1;HPM_P2
2021/06/20 00:00:16;;;;;;;17.23;15.52;;;;;;;22.73;78.95;100138.88;4970565;28;20503;-72
2021/06/20 00:02:46;;;;;;;18.02;16.25;;;;;;;22.60;79.30;100148.66;4974061;28;20444;-72
2021/06/20 00:05:18;;;;;;;15.60;14.27;;;;;;;22.48;78.89;100155.69;4973706;28;20046;-72
2021/06/20 00:07:44;;;;;;;17.30;15.68;;;;;;;22.55;79.05;100150.78;4973938;28;20097;-73
2021/06/20 00:10:12;;;;;;;18.48;16.98;;;;;;;22.62;78.39;100154.81;4973952;28;20039;-72
2021/06/20 00:12:39;;;;;;;19.60;17.67;;;;;;;22.59;78.73;100163.09;4973835;28;20414;-72
2021/06/20 00:15:09;;;;;;;19.23;17.63;;;;;;;22.60;78.70;100154.03;4973688;28;20185;-73
2021/06/20 00:17:34;;;;;;;20.25;18.35;;;;;;;22.65;78.39;100151.06;4973770;28;20035;-72
2021/06/20 00:19:59;;;;;;;20.40;18.60;;;;;;;22.65;78.68;100154.63;4973743;28;20495;-72
2021/06/20 00:22:25;;;;;;;20.45;18.67;;;;;;;22.64;78.29;100155.59;4973626;28;20107;-73
2021/06/20 00:24:50;;;;;;;19.50;17.85;;;;;;;22.58;78.60;100155.97;4973334;28;20031;-72
2021/06/20 00:27:16;;;;;;;21.40;19.17;;;;;;;22.57;78.68;100154.25;4973644;28;20062;-72
2021/06/20 00:29:41;;;;;;;20.88;19.05;;;;;;;22.59;79.12;100144.25;4973590;28;20101;-73
2021/06/20 00:32:07;;;;;;;19.55;17.50;;;;;;;22.59;78.66;100144.25;4973373;28;20038;-72
2021/06/20 00:34:32;;;;;;;18.73;17.02;;;;;;;22.56;78.96;100147.16;4973268;28;20031;-72
2021/06/20 00:36:57;;;;;;;21.55;19.65;;;;;;;22.46;79.81;100140.59;4973383;28;20146;-72
2021/06/20 00:39:23;;;;;;;19.08;17.17;;;;;;;22.48;79.15;100136.00;4973409;28;20042;-72
2021/06/20 00:41:48;;;;;;;24.58;21.92;;;;;;;22.52;79.50;100140.22;4973331;28;20042;-73
2021/06/20 00:44:14;;;;;;;20.25;18.35;;;;;;;22.45;79.68;100136.16;4973017;28;20492;-72
2021/06/20 00:46:39;;;;;;;20.35;18.42;;;;;;;22.37;80.12;100125.03;4973251;28;20038;-72
2021/06/20 00:49:04;;;;;;;20.52;17.98;;;;;;;22.35;79.90;100121.56;4972622;28;20038;-73
2021/06/20 00:51:30;;;;;;;21.00;19.10;;;;;;;22.23;80.55;100117.81;4973064;28;20093;-72
2021/06/20 00:53:55;;;;;;;20.02;18.13;;;;;;;22.08;80.77;100123.09;4973263;28;20042;-72
2021/06/20 00:56:21;;;;;;;18.77;17.08;;;;;;;21.98;80.88;100113.91;4972865;28;20044;-72
2021/06/20 00:58:47;;;;;;;20.20;18.27;;;;;;;21.91;81.56;100101.78;4973028;28;20811;-72
2021/06/20 01:01:13;;;;;;;19.15;17.45;;;;;;;21.97;80.81;100098.72;4970334;28;20443;-72
2021/06/20 01:03:38;;;;;;;21.08;19.08;;;;;;;21.99;81.60;100086.06;4972809;28;20046;-72
2021/06/20 01:06:04;;;;;;;19.45;17.75;;;;;;;22.00;81.15;100084.25;4972587;28;20129;-72
2021/06/20 01:08:30;;;;;;;19.40;17.50;;;;;;;21.99;80.61;100088.75;4972788;28;20070;-72
2021/06/20 01:10:55;;;;;;;21.45;19.55;;;;;;;21.96;81.04;100077.34;4972843;28;20043;-72
2021/06/20 01:13:21;;;;;;;18.10;16.50;;;;;;;21.91;80.35;100076.75;4972823;28;20042;-72
2021/06/20 01:15:50;;;;;;;20.90;18.90;;;;;;;21.86;80.82;100067.13;4972536;28;20495;-73
2021/06/20 01:18:17;;;;;;;19.27;17.38;;;;;;;21.88;80.44;100064.38;4955516;28;20038;-73
2021/06/20 01:20:44;;;;;;;19.83;17.83;;;;;;;21.90;80.82;100062.44;4972669;28;20058;-72
2021/06/20 01:23:10;;;;;;;18.83;17.05;;;;;;;21.93;80.88;100058.69;4972485;28;20117;-73
2021/06/20 01:25:38;;;;;;;19.20;17.50;;;;;;;21.94;80.47;100044.31;4969916;28;20130;-72
2021/06/20 01:28:09;;;;;;;18.35;16.45;;;;;;;21.94;81.08;100030.88;4972768;28;20097;-72
2021/06/20 01:30:37;;;;;;;16.70;15.13;;;;;;;21.95;80.43;100027.22;4972618;28;20191;-72
2021/06/20 01:33:05;;;;;;;17.67;16.15;;;;;;;21.94;80.24;100014.75;4972382;28;20039;-72
2021/06/20 01:35:31;;;;;;;22.90;19.80;;;;;;;21.94;80.23;100017.44;4938942;28;20037;-72
2021/06/20 01:37:57;;;;;;;17.52;15.98;;;;;;;21.90;79.89;100022.13;4972371;28;20507;-72
2021/06/20 01:40:24;;;;;;;18.17;16.58;;;;;;;21.90;80.19;100011.38;4971119;28;20034;-72
2021/06/20 01:42:50;;;;;;;18.15;16.35;;;;;;;21.87;79.93;100015.13;4972411;28;20499;-72
2021/06/20 01:45:17;;;;;;;19.38;17.55;;;;;;;21.86;80.53;100013.41;4972132;28;20045;-72
2021/06/20 01:47:43;;;;;;;17.67;16.13;;;;;;;21.85;80.44;100010.81;4972398;28;20053;-72
2021/06/20 01:50:11;;;;;;;16.33;14.82;;;;;;;21.82;80.15;100009.19;4972330;28;20042;-72
2021/06/20 01:52:37;;;;;;;16.95;15.35;;;;;;;21.82;80.07;100006.50;4972123;28;20042;-73
2021/06/20 01:55:05;;;;;;;16.85;15.35;;;;;;;21.78;80.20;100009.47;4972075;28;20031;-72
2021/06/20 01:57:34;;;;;;;17.77;16.25;;;;;;;21.74;79.85;100011.47;4972254;28;20039;-72
2021/06/20 02:00:03;;;;;;;17.88;16.27;;;;;;;21.71;79.64;100008.97;4974947;28;20130;-72
2021/06/20 02:02:38;;;;;;;15.70;14.30;;;;;;;21.69;79.67;100010.88;4976554;28;20473;-72
2021/06/20 02:05:04;;;;;;;18.10;16.13;;;;;;;21.65;80.06;100014.72;4975910;28;20126;-72
2021/06/20 02:07:30;;;;;;;22.65;20.27;;;;;;;21.62;80.43;100029.19;4976082;28;20086;-73
2021/06/20 02:09:56;;;;;;;18.77;16.95;;;;;;;21.62;80.01;100037.25;4976169;28;20038;-72
2021/06/20 02:12:24;;;;;;;18.42;16.83;;;;;;;21.57;80.59;100031.28;4956041;28;20059;-72
2021/06/20 02:14:50;;;;;;;19.60;17.77;;;;;;;21.52;80.67;100030.69;4975848;28;20118;-72
2021/06/20 02:17:22;;;;;;;19.73;17.75;;;;;;;21.37;81.27;100035.09;4976056;28;20212;-73
2021/06/20 02:19:47;;;;;;;16.95;15.38;;;;;;;21.29;80.95;100040.06;4975923;28;20050;-72
2021/06/20 02:22:13;;;;;;;14.68;13.38;;;;;;;21.27;80.81;100041.97;4975889;28;20042;-72
2021/06/20 02:24:39;;;;;;;16.42;14.93;;;;;;;21.28;80.67;100041.03;4958245;28;20031;-72
2021/06/20 02:27:05;;;;;;;18.35;16.67;;;;;;;21.20;80.90;100045.97;4975879;28;20046;-72
2021/06/20 02:29:32;;;;;;;19.33;17.63;;;;;;;21.20;81.06;100036.09;4975860;28;20161;-72
2021/06/20 02:31:57;;;;;;;16.90;15.48;;;;;;;21.25;80.81;100038.53;4975522;28;20130;-72
2021/06/20 02:34:22;;;;;;;20.13;17.20;;;;;;;21.23;81.28;100045.81;4975475;28;20058;-72
2021/06/20 02:36:48;;;;;;;16.73;15.23;;;;;;;21.17;81.26;100036.28;4975622;28;20039;-72
2021/06/20 02:39:13;;;;;;;13.27;11.98;;;;;;;21.14;80.89;100036.47;4975685;28;20619;-72
2021/06/20 02:41:38;;;;;;;15.63;12.85;;;;;;;21.10;80.97;100034.06;4975510;28;20506;-72
2021/06/20 02:44:04;;;;;;;16.65;15.13;;;;;;;21.08;80.42;100041.31;4975564;28;20403;-72
2021/06/20 02:46:30;;;;;;;18.92;17.10;;;;;;;21.09;81.50;100043.03;4975237;28;20042;-72
2021/06/20 02:48:55;;;;;;;18.38;16.63;;;;;;;21.01;81.94;100040.78;4958420;28;20471;-71
2021/06/20 02:51:20;;;;;;;17.42;15.88;;;;;;;21.04;81.63;100045.13;4975277;28;20034;-73
2021/06/20 02:53:46;;;;;;;17.73;16.13;;;;;;;21.01;82.15;100048.84;4975260;28;20042;-72
2021/06/20 02:56:11;;;;;;;19.67;17.23;;;;;;;20.98;82.39;100046.34;4975088;28;20034;-72
2021/06/20 02:58:36;;;;;;;19.95;18.20;;;;;;;20.95;81.90;100070.66;4975278;28;20504;-72
2021/06/20 03:01:02;;;;;;;20.77;18.90;;;;;;;20.95;82.04;100084.06;4975239;28;20038;-73
2021/06/20 03:03:27;;;;;;;18.20;16.40;;;;;;;20.92;81.93;100094.97;4975097;28;20376;-72
2021/06/20 03:05:53;;;;;;;21.73;19.73;;;;;;;20.89;82.20;100096.00;4974836;28;20041;-72
2021/06/20 03:08:18;;;;;;;21.33;19.42;;;;;;;20.90;81.36;100089.69;4975133;28;20062;-73
2021/06/20 03:10:43;;;;;;;20.58;18.67;;;;;;;20.94;81.69;100085.03;4957123;28;20070;-72
2021/06/20 03:13:09;;;;;;;23.40;20.15;;;;;;;21.00;81.07;100082.84;4974941;28;20047;-72
2021/06/20 03:15:38;;;;;;;19.70;17.80;;;;;;;21.08;80.23;100074.38;4974666;28;20097;-72
2021/06/20 03:18:04;;;;;;;19.45;17.75;;;;;;;21.14;79.96;100070.47;4974921;28;20038;-72
2021/06/20 03:20:29;;;;;;;19.98;18.00;;;;;;;21.17;79.55;100067.63;4974892;28;20046;-72
2021/06/20 03:22:54;;;;;;;24.95;22.77;;;;;;;21.18;79.91;100077.41;4974820;28;20049;-72
2021/06/20 03:25:20;;;;;;;20.63;18.73;;;;;;;21.17;80.24;100081.91;4974531;28;20423;-72
2021/06/20 03:27:46;;;;;;;20.88;19.08;;;;;;;21.17;80.01;100068.50;4974772;28;20459;-72
2021/06/20 03:30:12;;;;;;;20.83;18.73;;;;;;;21.18;80.65;100054.09;4974794;28;20046;-72
2021/06/20 03:32:37;;;;;;;21.35;19.35;;;;;;;21.20;80.15;100046.84;5033090;23;20053;-78
2021/06/20 03:35:03;;;;;;;22.33;20.23;;;;;;;21.24;79.94;100036.78;4995269;28;20038;-79
2021/06/20 03:37:29;;;;;;;20.63;18.45;;;;;;;21.34;79.93;100037.13;4989668;28;20491;-79
2021/06/20 03:39:54;;;;;;;21.58;19.35;;;;;;;21.38;80.29;100033.34;4993150;28;20035;-79
2021/06/20 03:42:19;;;;;;;21.77;19.65;;;;;;;21.39;79.85;100025.19;4977518;28;20041;-79
2021/06/20 03:44:45;;;;;;;20.23;18.25;;;;;;;21.50;79.90;100016.50;4951764;28;20052;-79
2021/06/20 03:47:10;;;;;;;19.55;17.65;;;;;;;21.63;78.97;100000.50;4967991;28;20031;-79
2021/06/20 03:49:35;;;;;;;19.17;17.40;;;;;;;21.75;78.71;99985.50;4969143;28;20039;-79
2021/06/20 03:52:01;;;;;;;23.08;20.50;;;;;;;21.87;78.60;99977.50;4951775;28;20066;-79
2021/06/20 03:54:26;;;;;;;19.77;17.92;;;;;;;21.96;78.17;99970.72;4968188;28;20041;-79
2021/06/20 03:56:55;;;;;;;21.95;19.85;;;;;;;22.02;77.92;99958.72;4970182;28;20507;-79
2021/06/20 03:59:23;;;;;;;21.50;19.58;;;;;;;22.09;77.46;99955.56;4967910;28;20053;-79
2021/06/20 04:01:49;;;;;;;21.98;19.88;;;;;;;22.16;77.28;99956.03;4951339;28;20042;-79
2021/06/20 04:04:14;;;;;;;20.60;18.80;;;;;;;22.25;76.78;99966.22;4966343;28;20129;-79
2021/06/20 04:06:39;;;;;;;21.60;19.70;;;;;;;22.33;76.94;99989.09;4967537;28;20027;-79
2021/06/20 04:09:05;;;;;;;23.55;21.38;;;;;;;22.35;77.12;99988.03;4934532;28;20550;-79
2021/06/20 04:11:30;;;;;;;22.38;20.33;;;;;;;22.46;76.50;99993.56;4951640;28;20030;-79
2021/06/20 04:13:56;;;;;;;20.60;18.60;;;;;;;22.61;75.83;99989.03;4952976;28;20062;-79
2021/06/20 04:16:21;;;;;;;22.13;20.02;;;;;;;22.75;75.57;99978.22;4967901;28;20411;-79
2021/06/20 04:18:47;;;;;;;20.25;18.33;;;;;;;22.82;75.15;99978.72;4951026;28;20039;-79
2021/06/20 04:21:12;;;;;;;18.70;16.90;;;;;;;22.90;74.75;99978.19;4968791;28;20098;-79
2021/06/20 04:23:37;;;;;;;20.63;18.45;;;;;;;23.04;74.56;99986.25;4967711;28;20032;-79
2021/06/20 04:26:03;;;;;;;17.00;15.38;;;;;;;23.14;73.87;99984.66;4946920;29;20110;-79
2021/06/20 04:28:28;;;;;;;17.88;16.27;;;;;;;23.28;73.18;99988.25;4934878;28;20451;-79
2021/06/20 04:30:56;;;;;;;17.63;16.02;;;;;;;23.41;72.80;99986.44;4951611;28;20057;-79
2021/06/20 04:33:22;;;;;;;16.15;14.48;;;;;;;23.54;72.48;99990.03;4952485;28;20746;-79
2021/06/20 04:35:47;;;;;;;18.08;15.20;;;;;;;23.66;72.10;99999.13;4967377;28;20046;-79
2021/06/20 04:38:12;;;;;;;16.40;14.15;;;;;;;23.74;71.88;99995.91;4968726;28;20464;-79
2021/06/20 04:40:39;;;;;;;17.40;15.68;;;;;;;23.81;71.77;99997.19;4969788;28;20037;-79
2021/06/20 04:43:08;;;;;;;17.23;15.55;;;;;;;23.89;71.20;99992.13;4968327;28;20035;-79
2021/06/20 04:45:33;;;;;;;16.80;15.02;;;;;;;24.02;70.51;99998.38;4946471;28;20027;-79
2021/06/20 04:47:59;;;;;;;16.50;14.93;;;;;;;24.14;70.69;99993.13;4964437;28;20086;-79
2021/06/20 04:50:25;;;;;;;15.88;14.07;;;;;;;24.26;70.11;99992.22;4964806;28;20047;-79
2021/06/20 04:52:50;;;;;;;15.05;13.68;;;;;;;24.32;69.38;99988.25;4967031;28;20158;-79
2021/06/20 04:55:15;;;;;;;14.65;13.25;;;;;;;24.37;69.10;99984.22;4933493;28;20063;-79
2021/06/20 04:57:41;;;;;;;15.02;13.55;;;;;;;24.47;68.37;99981.75;4966701;28;20045;-79
2021/06/20 05:00:09;;;;;;;13.23;12.00;;;;;;;24.52;68.01;99982.28;4967079;28;20031;-79
2021/06/20 05:02:34;;;;;;;14.27;12.88;;;;;;;24.60;68.34;99984.41;4969955;28;20043;-79
2021/06/20 05:05:00;;;;;;;14.90;13.70;;;;;;;24.69;68.33;99979.22;4949528;28;20602;-79
2021/06/20 05:07:26;;;;;;;13.98;12.77;;;;;;;24.83;68.22;99978.19;4966538;28;20045;-79
2021/06/20 05:09:52;;;;;;;17.73;14.95;;;;;;;24.93;68.12;99981.91;4969298;28;20122;-79
2021/06/20 05:12:17;;;;;;;16.75;15.05;;;;;;;25.04;67.76;99985.66;4968361;28;20049;-79
2021/06/20 05:14:45;;;;;;;16.73;15.07;;;;;;;25.11;66.88;99990.47;4947971;28;20044;-79
2021/06/20 05:17:11;;;;;;;15.88;14.40;;;;;;;25.21;66.83;99987.13;4966313;28;20606;-79
2021/06/20 05:19:37;;;;;;;17.80;16.13;;;;;;;25.32;66.59;99992.56;4931243;28;20123;-79
2021/06/20 05:22:03;;;;;;;16.38;14.77;;;;;;;25.38;66.06;99991.22;4951995;28;20077;-79
2021/06/20 05:24:28;;;;;;;16.63;14.98;;;;;;;25.48;65.90;99997.66;4937996;28;20062;-80
2021/06/20 05:26:53;;;;;;;14.93;13.38;;;;;;;25.59;65.64;99997.69;4950222;28;20047;-79
2021/06/20 05:29:19;;;;;;;13.80;12.30;;;;;;;25.72;64.94;100001.16;4965224;28;20039;-80
2021/06/20 05:31:44;;;;;;;12.15;10.98;;;;;;;25.89;63.85;100007.13;4950189;28;20039;-79
2021/06/20 05:34:09;;;;;;;14.30;12.90;;;;;;;25.91;63.50;100005.16;4952476;28;20035;-80
2021/06/20 05:36:35;;;;;;;12.65;11.38;;;;;;;25.96;63.20;100008.34;4934823;28;20067;-79
2021/06/20 05:39:01;;;;;;;13.48;12.27;;;;;;;25.98;63.57;100017.22;4968665;28;20071;-80
2021/06/20 05:41:26;;;;;;;13.23;12.00;;;;;;;26.00;63.45;100012.56;4970204;28;20511;-80
2021/06/20 05:43:53;;;;;;;12.38;11.20;;;;;;;26.19;62.91;100015.50;4935892;28;20127;-79
2021/06/20 05:46:19;;;;;;;13.00;11.70;;;;;;;26.35;62.69;100017.00;4967687;28;20019;-79
2021/06/20 05:48:46;;;;;;;12.40;11.23;;;;;;;26.57;61.49;100011.63;4949887;28;20035;-79
2021/06/20 05:51:12;;;;;;;11.48;10.38;;;;;;;26.71;61.10;100002.38;4969517;28;20091;-79
2021/06/20 05:53:37;;;;;;;11.88;10.57;;;;;;;26.88;60.59;100000.97;4951271;28;20475;-79
2021/06/20 05:56:03;;;;;;;11.20;10.20;;;;;;;27.04;59.79;100006.00;4950908;28;20118;-79
2021/06/20 05:58:28;;;;;;;11.98;10.77;;;;;;;27.21;59.64;100010.88;4968640;28;20549;-80
2021/06/20 06:00:54;;;;;;;11.80;10.27;;;;;;;27.33;59.08;100019.84;4970415;28;20094;-79
2021/06/20 06:03:19;;;;;;;11.25;10.15;;;;;;;27.44;59.11;100016.22;4966612;28;20043;-79
2021/06/20 06:05:44;;;;;;;10.48;9.57;;;;;;;27.57;58.75;100018.75;4966947;28;20038;-79
2021/06/20 06:08:10;;;;;;;13.20;10.77;;;;;;;27.69;58.61;100006.81;4967477;28;20035;-80
2021/06/20 06:10:35;;;;;;;11.50;10.10;;;;;;;27.79;58.36;100009.59;4969536;28;20050;-79
2021/06/20 06:13:01;;;;;;;10.75;9.70;;;;;;;27.89;58.08;100014.13;4967670;28;20090;-80
2021/06/20 06:15:27;;;;;;;10.13;9.13;;;;;;;28.01;57.67;100000.47;4951968;28;20046;-80
2021/06/20 06:17:53;;;;;;;9.70;8.57;;;;;;;28.16;57.39;100007.28;4969397;28;20041;-79
2021/06/20 06:20:19;;;;;;;9.23;8.40;;;;;;;28.33;56.40;100003.94;4967970;28;20122;-79
2021/06/20 06:22:45;;;;;;;9.48;8.43;;;;;;;28.46;55.53;99992.03;4969689;28;20035;-80
2021/06/20 06:25:12;;;;;;;9.50;8.68;;;;;;;28.54;55.27;99992.19;4969465;28;20043;-80
2021/06/20 06:27:38;;;;;;;8.70;7.90;;;;;;;28.63;53.84;99992.19;4964360;28;20102;-79
2021/06/20 06:30:05;;;;;;;9.13;7.15;;;;;;;28.72;52.75;99995.97;4949988;28;20034;-79
2021/06/20 06:32:30;;;;;;;8.13;6.88;;;;;;;28.89;53.09;99999.84;4952572;28;20145;-80
2021/06/20 06:34:56;;;;;;;7.53;6.82;;;;;;;29.02;52.59;99994.16;4948064;28;20118;-79
2021/06/20 06:37:21;;;;;;;7.55;6.47;;;;;;;29.11;52.19;99996.06;4968660;28;20047;-79
2021/06/20 06:39:46;;;;;;;7.03;6.32;;;;;;;29.28;51.83;99987.19;4967010;28;20043;-79
2021/06/20 06:42:12;;;;;;;7.63;6.43;;;;;;;29.35;50.86;99983.91;4967083;28;20039;-80
2021/06/20 06:44:37;;;;;;;7.40;6.63;;;;;;;29.45;50.06;99976.63;4966690;28;20451;-80
2021/06/20 06:47:03;;;;;;;7.13;6.43;;;;;;;29.61;49.81;99979.59;4952141;28;20125;-80
2021/06/20 06:49:28;;;;;;;7.88;7.07;;;;;;;29.68;49.77;99979.88;4938805;28;20031;-80
2021/06/20 06:51:53;;;;;;;7.43;6.72;;;;;;;29.80;50.13;99980.59;4971087;28;20074;-80
2021/06/20 06:54:19;;;;;;;7.88;6.95;;;;;;;29.92;49.74;99973.94;4971449;28;20045;-80
2021/06/20 06:56:46;;;;;;;12.20;7.53;;;;;;;30.04;49.28;99972.78;4971792;28;20062;-79
2021/06/20 06:59:12;;;;;;;8.10;7.30;;;;;;;30.13;48.91;99977.34;4971606;28;20031;-80
2021/06/20 07:01:38;;;;;;;8.07;7.32;;;;;;;30.27;48.99;99984.19;4972946;28;20166;-80
2021/06/20 07:04:03;;;;;;;8.68;7.78;;;;;;;30.36;48.15;99976.97;4971869;28;20039;-80
2021/06/20 07:06:29;;;;;;;9.57;7.82;;;;;;;30.58;48.08;99981.19;4968929;28;20039;-80
2021/06/20 07:08:54;;;;;;;7.72;6.93;;;;;;;30.82;47.39;99986.09;4955534;28;20069;-80
2021/06/20 07:11:21;;;;;;;7.72;6.75;;;;;;;31.13;46.65;99972.09;4955557;28;20035;-80
2021/06/20 07:13:46;;;;;;;8.93;6.85;;;;;;;31.37;45.60;99977.78;4951493;28;20043;-80
2021/06/20 07:16:12;;;;;;;7.43;6.63;;;;;;;31.61;45.52;99979.00;4972117;28;20035;-80
2021/06/20 07:18:37;;;;;;;8.27;6.72;;;;;;;31.89;45.38;99977.00;4972577;28;20045;-80
2021/06/20 07:21:03;;;;;;;7.88;7.07;;;;;;;32.00;44.84;99976.75;4971361;28;20415;-80
2021/06/20 07:23:29;;;;;;;7.95;5.95;;;;;;;32.01;44.57;99978.44;4972862;28;20049;-80
2021/06/20 07:25:55;;;;;;;6.85;6.20;;;;;;;32.00;44.08;99976.75;4970214;28;20030;-80
2021/06/20 07:28:20;;;;;;;8.00;5.85;;;;;;;32.03;41.03;99975.56;4968671;28;20035;-80
2021/06/20 07:30:49;;;;;;;9.25;5.80;;;;;;;31.88;41.49;99981.56;4967588;28;20034;-80
2021/06/20 07:33:18;;;;;;;6.88;6.18;;;;;;;31.84;42.25;99982.94;4966785;28;20111;-80
2021/06/20 07:35:46;;;;;;;7.20;5.95;;;;;;;31.82;43.05;99979.50;4968912;28;20041;-80
2021/06/20 07:38:12;;;;;;;7.72;6.43;;;;;;;31.83;43.70;99983.97;4955506;28;20032;-80
2021/06/20 07:40:37;;;;;;;8.73;6.18;;;;;;;31.86;43.48;99980.91;4971185;28;20046;-80
2021/06/20 07:43:02;;;;;;;7.40;6.70;;;;;;;31.90;43.64;99975.13;4968232;28;20043;-80
2021/06/20 07:45:28;;;;;;;8.15;6.95;;;;;;;31.87;43.64;99973.56;4965906;28;20071;-80
2021/06/20 07:47:53;;;;;;;7.00;6.32;;;;;;;31.88;43.90;99981.56;4951291;28;20414;-80
2021/06/20 07:50:19;;;;;;;6.82;6.13;;;;;;;31.92;43.64;99987.59;4952959;28;20454;-80
2021/06/20 07:52:45;;;;;;;6.78;6.07;;;;;;;31.90;44.44;99989.63;4969430;28;20042;-80
2021/06/20 07:55:12;;;;;;;6.85;5.88;;;;;;;32.01;43.97;99981.19;4967860;28;20549;-80
2021/06/20 07:57:37;;;;;;;6.63;5.82;;;;;;;32.14;43.46;99983.47;4966595;28;20023;-80
2021/06/20 08:00:05;;;;;;;7.18;6.45;;;;;;;32.20;43.36;99979.25;4950224;28;20578;-80
2021/06/20 08:02:38;;;;;;;6.60;6.00;;;;;;;32.32;43.59;99988.88;4969497;28;20102;-80
2021/06/20 08:05:04;;;;;;;6.75;5.80;;;;;;;32.37;43.00;99988.38;4954916;28;20039;-80
2021/06/20 08:07:32;;;;;;;6.22;5.55;;;;;;;32.33;41.91;99997.91;4953827;28;20049;-80
2021/06/20 08:09:57;;;;;;;5.88;5.38;;;;;;;32.27;40.46;99997.53;4966233;28;20035;-80
2021/06/20 08:12:23;;;;;;;6.10;5.47;;;;;;;32.29;40.02;99990.06;4970360;28;20042;-80
2021/06/20 08:14:49;;;;;;;8.10;5.28;;;;;;;32.35;40.09;99999.47;4939782;28;20039;-80
2021/06/20 08:17:15;;;;;;;5.57;5.07;;;;;;;32.46;39.66;100006.50;4969385;28;20067;-80
2021/06/20 08:19:40;;;;;;;5.70;5.20;;;;;;;32.52;40.04;100005.91;4952804;28;20027;-80
2021/06/20 08:22:08;;;;;;;5.80;4.80;;;;;;;32.53;39.73;99991.22;4968934;28;20442;-80
2021/06/20 08:24:34;;;;;;;6.22;5.10;;;;;;;32.55;38.84;99994.63;4947090;28;20035;-80
2021/06/20 08:26:59;;;;;;;5.10;4.60;;;;;;;32.49;39.27;99995.31;4969772;28;20041;-80
2021/06/20 08:29:25;;;;;;;7.28;4.72;;;;;;;32.54;39.14;99998.38;4933096;28;20043;-80
2021/06/20 08:31:50;;;;;;;7.45;4.93;;;;;;;32.54;38.64;99998.38;4970586;28;20075;-80
2021/06/20 08:34:15;;;;;;;6.90;4.80;;;;;;;32.51;38.72;99993.25;4949689;28;20046;-80
2021/06/20 08:36:41;;;;;;;5.07;4.57;;;;;;;32.62;38.84;100001.16;4946764;28;20062;-80
2021/06/20 08:39:07;;;;;;;6.60;5.20;;;;;;;32.83;37.89;99997.09;4970285;28;20038;-80
2021/06/20 08:41:33;;;;;;;5.40;4.72;;;;;;;32.93;37.68;99995.97;4953278;28;20035;-80
2021/06/20 08:43:59;;;;;;;5.45;4.47;;;;;;;33.09;37.45;100002.50;4950113;28;20035;-80
2021/06/20 08:46:24;;;;;;;6.13;5.53;;;;;;;33.24;37.76;99994.50;4970424;28;20182;-80
2021/06/20 08:48:53;;;;;;;6.43;4.97;;;;;;;33.51;36.75;100005.13;4971254;28;20039;-80
2021/06/20 08:51:18;;;;;;;5.30;4.80;;;;;;;33.68;36.71;100000.53;4962894;28;20032;-80
2021/06/20 08:53:44;;;;;;;6.38;4.90;;;;;;;33.72;35.84;100001.91;4969282;28;20455;-80
2021/06/20 08:56:09;;;;;;;5.85;5.13;;;;;;;33.58;36.81;100003.44;4932129;28;20432;-80
2021/06/20 08:58:35;;;;;;;6.82;4.97;;;;;;;33.68;35.92;100003.25;4970176;28;20081;-80
2021/06/20 09:01:07;;;;;;;7.25;4.65;;;;;;;33.72;35.96;99998.28;4935405;28;20046;-80
2021/06/20 09:03:45;;;;;;;8.43;4.70;;;;;;;33.35;35.72;99995.03;4949483;28;20079;-81
2021/06/20 09:06:15;;;;;;;6.38;4.80;;;;;;;33.02;35.80;99996.88;4966951;28;20144;-80
2021/06/20 09:08:48;;;;;;;9.95;4.40;;;;;;;32.96;36.70;99997.50;4951139;28;20035;-80
2021/06/20 09:11:31;;;;;;;7.57;5.00;;;;;;;32.95;35.03;99993.06;4933455;28;20039;-80
2021/06/20 09:14:11;;;;;;;7.95;4.85;;;;;;;32.88;35.90;99986.53;4947006;28;20059;-80
2021/06/20 09:16:52;;;;;;;8.48;5.03;;;;;;;32.77;36.57;99992.31;4948455;28;20104;-80
2021/06/20 09:19:29;;;;;;;8.02;5.28;;;;;;;33.01;36.84;99992.41;4949070;28;20403;-80
2021/06/20 09:21:57;;;;;;;9.82;6.10;;;;;;;33.08;36.67;99996.19;4947198;29;20042;-80
2021/06/20 09:24:23;;;;;;;11.40;5.70;;;;;;;32.71;37.29;99989.22;4960637;28;20034;-80
2021/06/20 09:26:53;;;;;;;11.40;5.65;;;;;;;32.70;37.27;99982.06;4968238;28;20050;-80
2021/06/20 09:29:27;;;;;;;11.23;5.68;;;;;;;32.71;37.67;99981.03;4932096;28;20043;-80
2021/06/20 09:31:53;;;;;;;7.72;5.53;;;;;;;32.82;38.08;99979.00;4966468;28;20038;-80
2021/06/20 09:34:19;;;;;;;10.40;5.28;;;;;;;32.96;37.91;99975.66;4966430;28;20070;-80
2021/06/20 09:36:45;;;;;;;9.68;5.78;;;;;;;33.01;38.41;99966.91;4969080;28;20043;-80
2021/06/20 09:39:21;;;;;;;11.35;6.05;;;;;;;32.91;38.27;99962.47;4968148;28;20031;-80
2021/06/20 09:41:59;;;;;;;8.93;6.10;;;;;;;33.06;38.09;99959.94;4968809;28;20043;-80
2021/06/20 09:44:38;;;;;;;11.50;6.60;;;;;;;33.15;37.46;99955.38;4967241;28;20046;-80
2021/06/20 09:47:05;;;;;;;9.45;5.68;;;;;;;33.31;36.37;99946.31;4965956;28;20035;-80
2021/06/20 09:49:31;;;;;;;16.42;6.00;;;;;;;33.21;37.23;99965.63;4950476;28;20039;-80
2021/06/20 09:51:58;;;;;;;15.88;5.85;;;;;;;33.34;37.37;99945.97;4967197;28;20049;-80
2021/06/20 09:54:30;;;;;;;12.57;5.97;;;;;;;33.46;35.58;99950.06;4967054;28;20054;-80
2021/06/20 09:56:56;;;;;;;18.33;6.40;;;;;;;33.52;35.57;99945.78;4966399;28;20043;-80
2021/06/20 09:59:33;;;;;;;13.20;5.70;;;;;;;33.59;36.21;99946.84;4950597;28;20038;-80
2021/06/20 10:02:11;;;;;;;15.55;5.68;;;;;;;33.69;34.99;99944.75;4960415;28;20620;-80
2021/06/20 10:04:39;;;;;;;15.65;6.18;;;;;;;33.63;35.79;99948.19;4947422;28;20047;-80
2021/06/20 10:07:09;;;;;;;19.88;6.97;;;;;;;33.89;35.58;99944.41;4950038;28;20118;-80
2021/06/20 10:09:36;;;;;;;13.85;5.65;;;;;;;34.01;36.04;99938.38;4930637;28;20087;-80
2021/06/20 10:12:04;;;;;;;18.23;6.22;;;;;;;33.99;35.78;99945.91;4968192;28;20035;-80
2021/06/20 10:14:31;;;;;;;17.23;6.75;;;;;;;34.20;34.89;99948.09;4966910;28;20061;-80
2021/06/20 10:17:05;;;;;;;14.75;6.07;;;;;;;34.61;33.63;99944.34;4966868;28;20400;-80
2021/06/20 10:19:31;;;;;;;15.65;5.97;;;;;;;34.69;33.26;99947.06;4944863;28;20174;-80
2021/06/20 10:22:09;;;;;;;20.48;6.28;;;;;;;35.02;32.84;99944.09;4952997;28;20510;-80
2021/06/20 10:24:43;;;;;;;19.83;6.63;;;;;;;34.71;34.07;99953.19;4969100;28;20035;-81
2021/06/20 10:27:09;;;;;;;22.83;7.00;;;;;;;35.11;33.75;99948.53;4954565;28;20086;-80
2021/06/20 10:29:38;;;;;;;15.52;5.88;;;;;;;35.15;33.55;99946.25;4936385;29;20126;-80
2021/06/20 10:32:21;;;;;;;18.25;6.47;;;;;;;34.94;33.29;99944.16;4952988;28;20037;-80
2021/06/20 10:34:52;;;;;;;18.15;6.22;;;;;;;34.97;33.45;99949.25;4939468;28;20070;-81
2021/06/20 10:37:19;;;;;;;16.92;5.32;;;;;;;34.77;32.91;99955.22;4949631;28;20167;-81
2021/06/20 10:39:50;;;;;;;20.73;6.32;;;;;;;34.04;33.15;99943.50;4970227;28;20047;-80
2021/06/20 10:42:16;;;;;;;18.35;5.88;;;;;;;33.95;35.01;99954.63;4921629;28;20059;-80
2021/06/20 10:44:50;;;;;;;16.88;5.90;;;;;;;34.07;34.48;99957.91;4970082;28;20123;-80
2021/06/20 10:47:26;;;;;;;18.85;5.68;;;;;;;34.15;34.23;99966.09;4966118;28;20046;-80
2021/06/20 10:50:04;;;;;;;13.75;5.82;;;;;;;34.33;34.83;99969.44;4968052;28;20047;-80
2021/06/20 10:52:29;;;;;;;19.30;6.30;;;;;;;34.32;34.63;99964.13;4948456;29;20427;-80
2021/06/20 10:55:12;;;;;;;17.73;5.85;;;;;;;34.35;34.88;99972.88;4952474;28;20034;-80
2021/06/20 10:57:55;;;;;;;20.25;6.13;;;;;;;34.26;34.71;99972.03;4933870;28;20056;-80
2021/06/20 11:00:26;;;;;;;13.00;5.30;;;;;;;34.44;34.26;99971.78;4950390;28;20075;-81
2021/06/20 11:02:51;;;;;;;12.45;5.55;;;;;;;34.57;34.85;99973.13;4969312;28;20035;-80
2021/06/20 11:05:24;;;;;;;22.85;6.53;;;;;;;34.36;34.33;99973.72;4931820;28;20035;-80
2021/06/20 11:08:05;;;;;;;16.83;6.45;;;;;;;33.95;34.76;99971.91;4952628;28;20035;-81
2021/06/20 11:10:31;;;;;;;12.35;5.32;;;;;;;33.86;35.45;99955.69;4966037;28;20043;-80
2021/06/20 11:12:56;;;;;;;16.45;6.30;;;;;;;33.87;35.29;99965.59;4968400;28;20034;-80
2021/06/20 11:15:29;;;;;;;16.52;6.18;;;;;;;34.03;34.95;99969.19;4953047;28;20121;-81
2021/06/20 11:18:08;;;;;;;12.13;6.10;;;;;;;34.26;34.32;99954.75;4970675;28;20051;-80